HFA103 LLHA-LLER
Flight info
| Callsign | HFA103 |
|---|---|
| Flight time | N/A |
| Altitude | 5000 |
| Route | GALIM Q28 ATLIT J15 NAT J10 SHAYO/N0265F040 J10 NURIT |
| Aircraft | AT76/M-SDFGIRY/S |
Departure
| Time | N/A |
|---|---|
| Airport | Uri Michaeli Haifa International Airport (LLHA) |
Arrival
| Time | 2026-05-08 07:34 |
|---|---|
| Airport | Ramon International Airport (LLER) |
| Time | Latitude | Longitude | Altitude | Speed | Heading |
|---|---|---|---|---|---|
| 2026-05-08 07:13 | 30.61790 | 35.19052 | 12988 ft | 273 kts | 205° |
| 2026-05-08 07:13 | 30.60034 | 35.18191 | 12991 ft | 272 kts | 205° |
| 2026-05-08 07:13 | 30.58288 | 35.17332 | 12990 ft | 272 kts | 205° |
| 2026-05-08 07:14 | 30.56544 | 35.16477 | 12988 ft | 272 kts | 205° |
| 2026-05-08 07:14 | 30.55381 | 35.15945 | 12990 ft | 271 kts | 199° |
| 2026-05-08 07:14 | 30.53529 | 35.15550 | 12995 ft | 272 kts | 189° |
| 2026-05-08 07:14 | 30.51646 | 35.15298 | 13001 ft | 273 kts | 188° |
| 2026-05-08 07:15 | 30.49754 | 35.15032 | 12997 ft | 274 kts | 189° |
| 2026-05-08 07:15 | 30.47872 | 35.14698 | 13080 ft | 269 kts | 191° |
| 2026-05-08 07:15 | 30.46088 | 35.14341 | 13420 ft | 259 kts | 192° |
| 2026-05-08 07:15 | 30.44293 | 35.13985 | 13428 ft | 264 kts | 191° |
| 2026-05-08 07:16 | 30.42463 | 35.13631 | 13336 ft | 270 kts | 191° |
| 2026-05-08 07:16 | 30.40570 | 35.13264 | 13052 ft | 282 kts | 191° |
| 2026-05-08 07:16 | 30.38587 | 35.12883 | 12649 ft | 295 kts | 191° |
| 2026-05-08 07:16 | 30.36551 | 35.12494 | 12185 ft | 295 kts | 191° |
| 2026-05-08 07:17 | 30.34533 | 35.12106 | 11754 ft | 293 kts | 190° |
| 2026-05-08 07:17 | 30.32530 | 35.11728 | 11309 ft | 291 kts | 190° |
| 2026-05-08 07:17 | 30.30544 | 35.11351 | 10884 ft | 288 kts | 190° |
| 2026-05-08 07:17 | 30.28577 | 35.10974 | 10452 ft | 285 kts | 189° |
| 2026-05-08 07:18 | 30.26626 | 35.10612 | 10020 ft | 282 kts | 189° |
| 2026-05-08 07:18 | 30.24699 | 35.10251 | 9562 ft | 279 kts | 189° |
| 2026-05-08 07:18 | 30.22785 | 35.09893 | 9104 ft | 277 kts | 189° |
| 2026-05-08 07:18 | 30.20896 | 35.09510 | 8651 ft | 274 kts | 189° |
| 2026-05-08 07:19 | 30.19029 | 35.09119 | 8205 ft | 272 kts | 189° |
| 2026-05-08 07:19 | 30.17173 | 35.08729 | 7765 ft | 270 kts | 189° |
| 2026-05-08 07:19 | 30.15311 | 35.08346 | 7332 ft | 268 kts | 188° |
| 2026-05-08 07:19 | 30.13479 | 35.07971 | 6901 ft | 266 kts | 188° |
| 2026-05-08 07:20 | 30.11667 | 35.07594 | 6482 ft | 265 kts | 188° |
| 2026-05-08 07:20 | 30.09893 | 35.07224 | 6216 ft | 258 kts | 188° |
| 2026-05-08 07:20 | 30.08168 | 35.06879 | 6069 ft | 245 kts | 187° |
| 2026-05-08 07:20 | 30.06516 | 35.06549 | 6025 ft | 240 kts | 187° |
| 2026-05-08 07:21 | 30.04867 | 35.06201 | 6037 ft | 241 kts | 188° |
| 2026-05-08 07:21 | 30.03224 | 35.05848 | 6002 ft | 240 kts | 188° |
| 2026-05-08 07:21 | 30.01579 | 35.05512 | 6020 ft | 240 kts | 187° |
| 2026-05-08 07:21 | 29.99932 | 35.05203 | 5968 ft | 239 kts | 186° |
| 2026-05-08 07:22 | 29.98293 | 35.04899 | 5993 ft | 238 kts | 186° |
| 2026-05-08 07:22 | 29.96657 | 35.04591 | 6013 ft | 238 kts | 188° |
| 2026-05-08 07:22 | 29.95021 | 35.04283 | 6027 ft | 239 kts | 186° |
| 2026-05-08 07:22 | 29.93378 | 35.03974 | 6032 ft | 240 kts | 187° |
| 2026-05-08 07:23 | 29.91734 | 35.03649 | 5984 ft | 240 kts | 187° |
| 2026-05-08 07:23 | 29.90096 | 35.03328 | 5995 ft | 239 kts | 187° |
| 2026-05-08 07:23 | 29.88451 | 35.03001 | 6028 ft | 239 kts | 187° |
| 2026-05-08 07:23 | 29.86806 | 35.02685 | 5993 ft | 240 kts | 186° |
| 2026-05-08 07:24 | 29.85162 | 35.02377 | 5983 ft | 239 kts | 186° |
| 2026-05-08 07:24 | 29.83523 | 35.02066 | 5952 ft | 238 kts | 187° |
| 2026-05-08 07:24 | 29.81899 | 35.01731 | 5958 ft | 236 kts | 190° |
| 2026-05-08 07:24 | 29.80366 | 35.01065 | 5962 ft | 236 kts | 202° |
| 2026-05-08 07:25 | 29.78888 | 35.00250 | 5942 ft | 235 kts | 202° |
| 2026-05-08 07:25 | 29.77447 | 34.99454 | 5973 ft | 235 kts | 202° |
| 2026-05-08 07:25 | 29.74439 | 34.97881 | 5969 ft | 238 kts | 200° |
| 2026-05-08 07:26 | 29.72913 | 34.97133 | 5971 ft | 239 kts | 200° |
| 2026-05-08 07:26 | 29.71378 | 34.96394 | 5924 ft | 240 kts | 198° |
| 2026-05-08 07:26 | 29.69804 | 34.95806 | 5739 ft | 236 kts | 194° |
| 2026-05-08 07:26 | 29.68203 | 34.95297 | 5333 ft | 243 kts | 192° |
| 2026-05-08 07:27 | 29.66558 | 34.94775 | 5041 ft | 246 kts | 192° |
| 2026-05-08 07:27 | 29.64919 | 34.94239 | 4781 ft | 244 kts | 193° |
| 2026-05-08 07:27 | 29.63289 | 34.93681 | 4511 ft | 244 kts | 194° |
| 2026-05-08 07:27 | 29.61662 | 34.93123 | 4243 ft | 244 kts | 194° |
| 2026-05-08 07:28 | 29.60036 | 34.92560 | 3975 ft | 245 kts | 195° |
| 2026-05-08 07:28 | 29.58395 | 34.91987 | 3702 ft | 247 kts | 196° |
| 2026-05-08 07:28 | 29.56751 | 34.91419 | 3495 ft | 247 kts | 196° |
| 2026-05-08 07:28 | 29.55080 | 34.90838 | 3384 ft | 255 kts | 197° |
| 2026-05-08 07:29 | 29.53338 | 34.90515 | 3340 ft | 257 kts | 174° |
| 2026-05-08 07:29 | 29.51693 | 34.91264 | 3311 ft | 259 kts | 140° |
| 2026-05-08 07:29 | 29.50661 | 34.92908 | 3304 ft | 254 kts | 107° |
| 2026-05-08 07:29 | 29.50571 | 34.94881 | 3301 ft | 248 kts | 74° |
| 2026-05-08 07:30 | 29.51432 | 34.96542 | 3297 ft | 243 kts | 40° |
| 2026-05-08 07:30 | 29.52942 | 34.97328 | 3271 ft | 242 kts | 8° |
| 2026-05-08 07:30 | 29.54588 | 34.97257 | 2999 ft | 232 kts | 352° |
| 2026-05-08 07:30 | 29.56154 | 34.97079 | 2782 ft | 223 kts | 0° |
| 2026-05-08 07:31 | 29.57679 | 34.97206 | 2442 ft | 218 kts | 7° |
| 2026-05-08 07:31 | 29.59138 | 34.97526 | 2275 ft | 207 kts | 11° |
| 2026-05-08 07:31 | 29.60490 | 34.97908 | 2175 ft | 192 kts | 13° |
| 2026-05-08 07:31 | 29.61737 | 34.98275 | 2138 ft | 178 kts | 13° |
| 2026-05-08 07:32 | 29.62933 | 34.98624 | 1906 ft | 177 kts | 13° |
| 2026-05-08 07:32 | 29.64125 | 34.98962 | 1659 ft | 176 kts | 13° |
| 2026-05-08 07:32 | 29.65309 | 34.99298 | 1393 ft | 175 kts | 14° |
| 2026-05-08 07:32 | 29.66471 | 34.99689 | 1224 ft | 167 kts | 13° |
| 2026-05-08 07:33 | 29.67533 | 34.99976 | 1007 ft | 149 kts | 12° |
| 2026-05-08 07:33 | 29.68437 | 35.00206 | 814 ft | 117 kts | 14° |
| 2026-05-08 07:33 | 29.69163 | 35.00405 | 711 ft | 106 kts | 13° |
| 2026-05-08 07:33 | 29.69894 | 35.00622 | 542 ft | 107 kts | 13° |
| 2026-05-08 07:34 | 29.70598 | 35.00828 | 411 ft | 102 kts | 13° |
| 2026-05-08 07:34 | 29.71261 | 35.01004 | 317 ft | 92 kts | 14° |
| 2026-05-08 07:34 | 29.71754 | 35.01141 | 294 ft | 29 kts | 15° |
| 2026-05-08 07:34 | 29.71987 | 35.01206 | 294 ft | 36 kts | 13° |
| 2026-05-08 07:35 | 29.72108 | 35.01234 | 294 ft | 10 kts | 13° |
| 2026-05-08 07:35 | 29.72203 | 35.01214 | 296 ft | 17 kts | 298° |
| 2026-05-08 07:35 | 29.72226 | 35.01078 | 294 ft | 17 kts | 263° |
| 2026-05-08 07:35 | 29.72231 | 35.00948 | 295 ft | 15 kts | 283° |
| 2026-05-08 07:36 | 29.72254 | 35.00836 | 296 ft | 14 kts | 284° |
| 2026-05-08 07:36 | 29.72281 | 35.00776 | 294 ft | 0 kts | 352° |
| 2026-05-08 07:36 | 29.72291 | 35.00780 | 294 ft | 0 kts | 30° |
| 2026-05-08 07:36 | 29.72304 | 35.00800 | 294 ft | 3 kts | 57° |